createdAt,value
2022-10-03T00:05:01.562Z,3.15
2022-10-03T00:08:00.954Z,3.45
2022-10-03T00:11:03.064Z,3.78
2022-10-03T00:13:43.865Z,3.78
2022-10-03T00:16:44.618Z,3.15
2022-10-03T00:19:24.563Z,3.10
2022-10-03T00:22:21.467Z,3.35
2022-10-03T00:25:24.041Z,1.98
2022-10-03T00:28:13.766Z,3.67
2022-10-03T00:30:53.083Z,3.03
2022-10-03T00:33:51.989Z,2.38
2022-10-03T00:36:55.436Z,2.85
2022-10-03T00:39:55.774Z,2.95
2022-10-03T00:43:06.624Z,4.50
2022-10-03T00:46:07.392Z,3.03
2022-10-03T00:49:03.165Z,2.60
2022-10-03T00:52:11.435Z,3.10
2022-10-03T00:54:52.726Z,2.22
2022-10-03T00:57:53.343Z,2.90
2022-10-03T01:00:24.977Z,3.08
2022-10-03T01:02:52.180Z,2.95
2022-10-03T01:05:48.777Z,3.08
2022-10-03T01:08:48.884Z,2.90
2022-10-03T01:11:21.451Z,4.93
2022-10-03T01:14:19.449Z,4.03
2022-10-03T01:17:04.691Z,2.50
2022-10-03T01:20:02.043Z,2.10
2022-10-03T01:22:38.021Z,2.67
2022-10-03T01:25:17.007Z,3.67
2022-10-03T01:28:15.821Z,3.13
2022-10-03T01:30:50.098Z,3.30
2022-10-03T01:33:44.404Z,2.28
2022-10-03T01:36:34.979Z,2.22
2022-10-03T01:39:49.218Z,3.17
2022-10-03T01:42:47.954Z,2.92
2022-10-03T01:46:04.697Z,2.50
2022-10-03T01:48:59.498Z,1.90
2022-10-03T01:51:55.776Z,2.35
2022-10-03T01:54:45.335Z,2.10
2022-10-03T01:57:45.593Z,2.30
2022-10-03T02:00:47.613Z,3.30
2022-10-03T02:03:45.339Z,2.65
2022-10-03T02:06:50.741Z,4.60
2022-10-03T02:09:44.102Z,4.72
2022-10-03T02:12:40.452Z,3.33
2022-10-03T02:15:31.128Z,2.25
2022-10-03T02:18:14.742Z,2.78
2022-10-03T02:20:51.085Z,2.30
2022-10-03T02:23:31.690Z,2.30
2022-10-03T02:26:32.394Z,3.13
2022-10-03T02:29:45.167Z,2.88
2022-10-03T02:33:01.228Z,3.15
2022-10-03T02:36:01.884Z,2.42
2022-10-03T02:39:05.821Z,2.17
2022-10-03T02:42:17.462Z,2.40
2022-10-03T02:45:27.222Z,2.50
2022-10-03T02:48:37.651Z,2.30
2022-10-03T02:51:26.367Z,2.92
2022-10-03T02:54:35.977Z,1.80
2022-10-03T02:58:02.112Z,2.88
2022-10-03T03:00:56.979Z,2.47
2022-10-03T03:04:01.552Z,3.45
2022-10-03T03:07:16.826Z,2.22
2022-10-03T03:10:30.405Z,2.63
2022-10-03T03:13:12.172Z,3.13
2022-10-03T03:15:57.516Z,3.45
2022-10-03T03:18:50.478Z,2.83
2022-10-03T03:21:37.412Z,2.75
2022-10-03T03:24:51.691Z,2.70
2022-10-03T03:28:03.182Z,2.88
2022-10-03T03:30:50.835Z,4.10
2022-10-03T03:33:38.927Z,2.80
2022-10-03T03:36:44.253Z,2.97
2022-10-03T03:39:34.976Z,3.05
2022-10-03T03:42:20.959Z,2.40
2022-10-03T03:44:57.042Z,2.38
2022-10-03T03:47:57.637Z,3.22
2022-10-03T03:51:06.758Z,4.10
2022-10-03T03:53:48.765Z,3.00
2022-10-03T03:56:41.232Z,3.63
2022-10-03T03:59:40.920Z,3.50
2022-10-03T04:02:18.015Z,2.28
2022-10-03T04:05:31.222Z,2.60
2022-10-03T04:08:32.052Z,4.20
2022-10-03T04:11:20.223Z,2.78
2022-10-03T04:14:11.846Z,2.15
2022-10-03T04:17:18.293Z,2.33
2022-10-03T04:20:21.152Z,2.50
2022-10-03T04:23:12.805Z,2.50
2022-10-03T04:25:46.232Z,2.72
2022-10-03T04:28:54.539Z,2.15
2022-10-03T04:32:10.554Z,2.95
2022-10-03T04:35:08.090Z,2.40
2022-10-03T04:37:57.603Z,3.65
2022-10-03T04:40:52.692Z,2.75
2022-10-03T04:43:35.780Z,2.60
2022-10-03T04:46:33.804Z,2.42
2022-10-03T04:49:37.328Z,2.72
2022-10-03T04:53:03.313Z,2.05
2022-10-03T04:56:14.136Z,2.60
2022-10-03T04:58:51.102Z,3.00
2022-10-03T05:01:50.934Z,2.35
2022-10-03T05:04:29.918Z,2.47
2022-10-03T05:07:08.381Z,1.40
2022-10-03T05:10:17.138Z,2.05
2022-10-03T05:13:01.556Z,3.38
2022-10-03T05:15:34.181Z,2.30
2022-10-03T05:18:37.291Z,2.30
2022-10-03T05:21:21.719Z,2.28
2022-10-03T05:24:26.793Z,1.85
2022-10-03T05:27:19.549Z,2.60
2022-10-03T05:30:20.339Z,2.30
2022-10-03T05:33:25.429Z,2.60
2022-10-03T05:36:12.470Z,2.67
2022-10-03T05:39:07.071Z,2.17
2022-10-03T05:41:38.036Z,1.58
2022-10-03T05:44:19.635Z,1.83
2022-10-03T05:46:59.391Z,1.90
2022-10-03T05:50:13.323Z,1.73
2022-10-03T05:53:06.847Z,1.70
2022-10-03T05:55:49.032Z,2.28
2022-10-03T05:59:05.625Z,3.45
2022-10-03T06:01:47.991Z,2.30
2022-10-03T06:04:29.551Z,1.73
2022-10-03T06:07:14.235Z,1.55
2022-10-03T06:09:53.503Z,2.03
2022-10-03T06:12:34.442Z,1.98
2022-10-03T06:16:09.399Z,2.08
2022-10-03T06:18:57.594Z,2.20
2022-10-03T06:22:09.387Z,2.28
2022-10-03T06:25:26.347Z,3.30
2022-10-03T06:28:26.684Z,2.00
2022-10-03T06:31:31.171Z,1.77
2022-10-03T06:34:35.161Z,3.22
2022-10-03T06:37:39.789Z,1.63
2022-10-03T06:40:52.385Z,2.33
2022-10-03T06:44:09.647Z,2.95
2022-10-03T06:46:54.164Z,1.70
2022-10-03T06:49:42.347Z,2.08
2022-10-03T06:52:34.447Z,2.65
2022-10-03T06:55:26.503Z,1.55
2022-10-03T06:58:14.999Z,1.85
2022-10-03T07:01:12.331Z,4.63
2022-10-03T07:04:19.817Z,1.98
2022-10-03T07:07:26.566Z,2.00
2022-10-03T07:10:05.309Z,1.30
2022-10-03T07:12:47.467Z,1.75
2022-10-03T07:16:08.688Z,1.88
2022-10-03T07:19:15.697Z,1.40
2022-10-03T07:22:08.251Z,2.00
2022-10-03T07:24:56.606Z,2.17
2022-10-03T07:27:39.638Z,1.77
2022-10-03T07:30:20.062Z,1.30
2022-10-03T07:33:38.779Z,3.05
2022-10-03T07:36:58.678Z,1.75
2022-10-03T07:40:00.927Z,2.95
2022-10-03T07:42:46.972Z,1.10
2022-10-03T07:48:39.421Z,1.10
2022-10-03T07:51:24.477Z,2.05
2022-10-03T07:54:25.050Z,2.63
2022-10-03T07:57:16.120Z,1.20
2022-10-03T08:00:08.738Z,1.30
2022-10-03T08:03:04.544Z,1.10
2022-10-03T08:05:51.043Z,2.17
2022-10-03T08:08:24.305Z,1.42
2022-10-03T08:11:48.268Z,1.40
2022-10-03T08:14:19.197Z,1.25
2022-10-03T08:16:53.033Z,1.40
2022-10-03T08:19:38.013Z,0.85
2022-10-03T08:22:30.305Z,2.95
2022-10-03T08:25:27.155Z,1.00
2022-10-03T08:28:14.686Z,1.98
2022-10-03T08:31:21.153Z,0.75
2022-10-03T08:34:06.563Z,1.17
2022-10-03T08:37:31.358Z,1.10
2022-10-03T08:40:53.736Z,0.57
2022-10-03T08:44:12.630Z,1.38
2022-10-03T08:47:26.497Z,1.35
2022-10-03T08:50:31.414Z,1.42
2022-10-03T08:53:28.614Z,1.58
2022-10-03T08:56:16.102Z,1.77
2022-10-03T08:59:23.654Z,0.95
2022-10-03T09:02:40.892Z,1.08
2022-10-03T09:08:09.003Z,0.88
2022-10-03T09:11:46.088Z,2.15
2022-10-03T09:14:46.248Z,1.45
2022-10-03T09:17:50.236Z,0.43
2022-10-03T09:20:57.866Z,0.82
2022-10-03T09:23:59.457Z,0.70
2022-10-03T09:26:52.508Z,1.60
2022-10-03T09:29:48.182Z,1.13
2022-10-03T09:33:01.970Z,1.95
2022-10-03T09:35:57.719Z,0.80
2022-10-03T09:38:55.822Z,0.90
2022-10-03T09:41:38.836Z,1.70
2022-10-03T09:44:28.912Z,0.70
2022-10-03T09:47:29.642Z,0.60
2022-10-03T09:50:19.632Z,0.93
2022-10-03T09:53:24.800Z,1.23
2022-10-03T09:56:28.802Z,0.57
2022-10-03T09:59:44.185Z,0.65
2022-10-03T10:02:53.119Z,0.82
2022-10-03T10:05:54.143Z,0.90
2022-10-03T10:08:38.522Z,1.02
2022-10-03T10:11:17.502Z,0.50
2022-10-03T10:14:24.665Z,0.70
2022-10-03T10:17:45.112Z,0.80
2022-10-03T10:21:11.995Z,0.70
2022-10-03T10:24:05.753Z,0.60
2022-10-03T10:26:42.189Z,0.40
2022-10-03T10:29:47.474Z,0.50
2022-10-03T10:32:53.642Z,0.45
2022-10-03T10:36:06.799Z,0.55
2022-10-03T10:38:56.204Z,0.82
2022-10-03T10:41:38.247Z,1.60
2022-10-03T10:44:32.573Z,0.95
2022-10-03T10:47:08.686Z,0.77
2022-10-03T10:50:09.785Z,1.95
2022-10-03T10:53:37.760Z,0.40
2022-10-03T10:56:48.000Z,0.60
2022-10-03T11:00:02.163Z,0.52
2022-10-03T11:03:30.658Z,1.00
2022-10-03T11:06:18.739Z,0.77
2022-10-03T11:09:25.512Z,0.93
2022-10-03T11:14:55.444Z,1.13
2022-10-03T11:18:32.441Z,0.37
2022-10-03T11:21:51.988Z,0.60
2022-10-03T11:24:27.235Z,0.57
2022-10-03T11:27:07.511Z,1.38
2022-10-03T11:29:46.008Z,0.55
2022-10-03T11:32:59.013Z,0.68
2022-10-03T11:35:44.582Z,0.80
2022-10-03T11:38:30.274Z,0.98
2022-10-03T11:41:22.505Z,0.68
2022-10-03T11:44:33.082Z,0.73
2022-10-03T11:47:15.527Z,0.80
2022-10-03T11:50:14.740Z,0.80
2022-10-03T11:53:39.022Z,1.90
2022-10-03T11:56:24.809Z,1.10
2022-10-03T11:59:16.129Z,1.20
2022-10-03T12:02:38.024Z,0.65
2022-10-03T12:05:19.195Z,1.08
2022-10-03T12:08:08.888Z,1.05
2022-10-03T12:10:47.683Z,1.80
2022-10-03T12:13:25.770Z,1.80
2022-10-03T12:15:58.971Z,0.95
2022-10-03T12:18:42.809Z,0.73
2022-10-03T12:21:12.358Z,0.85
2022-10-03T12:23:55.951Z,0.73
2022-10-03T12:27:04.921Z,2.17
2022-10-03T12:29:36.776Z,0.63
2022-10-03T12:32:13.113Z,1.45
2022-10-03T12:35:02.592Z,0.93
2022-10-03T12:37:40.796Z,0.60
2022-10-03T12:40:30.215Z,1.00
2022-10-03T12:43:14.411Z,0.98
2022-10-03T12:46:12.570Z,0.70
2022-10-03T12:48:56.004Z,0.68
2022-10-03T12:51:36.154Z,0.90
2022-10-03T12:54:39.005Z,1.60
2022-10-03T12:57:13.114Z,0.85
2022-10-03T12:59:51.778Z,1.98
2022-10-03T13:02:28.045Z,0.77
2022-10-03T13:05:25.421Z,1.50
2022-10-03T13:08:00.573Z,0.75
2022-10-03T13:10:41.070Z,0.70
2022-10-03T13:13:45.529Z,0.73
2022-10-03T13:16:32.686Z,0.95
2022-10-03T13:19:22.122Z,0.98
2022-10-03T13:22:20.565Z,1.13
2022-10-03T13:25:29.816Z,1.23
2022-10-03T13:28:18.776Z,0.77
2022-10-03T13:30:54.099Z,0.80
2022-10-03T13:33:26.981Z,0.60
2022-10-03T13:36:55.150Z,1.52
2022-10-03T13:39:39.307Z,1.25
2022-10-03T13:42:19.269Z,1.52
2022-10-03T13:44:56.700Z,0.98
2022-10-03T13:47:56.007Z,1.55
2022-10-03T13:50:42.328Z,0.68
2022-10-03T13:53:20.160Z,1.08
2022-10-03T13:56:06.295Z,0.75
2022-10-03T13:59:23.156Z,0.90
2022-10-03T14:02:36.326Z,1.20
2022-10-03T14:05:31.004Z,1.52
2022-10-03T14:08:34.001Z,0.80
2022-10-03T14:11:15.375Z,0.68
2022-10-03T14:14:25.520Z,0.93
2022-10-03T14:17:18.246Z,0.95
2022-10-03T14:20:11.067Z,0.85
2022-10-03T14:23:14.221Z,1.25
2022-10-03T14:25:56.445Z,1.50
2022-10-03T14:28:35.781Z,1.15
2022-10-03T14:31:25.296Z,0.73
2022-10-03T14:34:16.697Z,0.90
2022-10-03T14:36:57.262Z,1.13
2022-10-03T14:39:44.949Z,0.90
2022-10-03T14:42:30.983Z,1.23
2022-10-03T14:47:40.983Z,1.17
2022-10-03T14:50:18.115Z,1.05
2022-10-03T14:53:03.359Z,0.68
2022-10-03T14:56:02.829Z,2.42
2022-10-03T14:58:36.645Z,1.33
2022-10-03T15:01:12.404Z,1.33
2022-10-03T15:04:06.522Z,0.90
2022-10-03T15:06:54.335Z,0.90
2022-10-03T15:09:42.852Z,0.98
2022-10-03T15:12:20.722Z,1.25
2022-10-03T15:14:58.176Z,0.93
2022-10-03T15:17:30.852Z,1.05
2022-10-03T15:20:01.541Z,1.13
2022-10-03T15:22:42.500Z,0.95
2022-10-03T15:25:38.867Z,0.93
2022-10-03T15:30:39.414Z,0.80
2022-10-03T15:33:32.239Z,0.98
2022-10-03T15:36:22.778Z,1.75
2022-10-03T15:38:55.194Z,0.80
2022-10-03T15:42:03.638Z,1.33
2022-10-03T15:44:53.534Z,0.93
2022-10-03T15:47:27.036Z,1.00
2022-10-03T15:50:24.698Z,1.10
2022-10-03T15:53:12.419Z,1.10
2022-10-03T15:55:56.757Z,1.00
2022-10-03T15:58:36.636Z,0.98
2022-10-03T16:01:14.226Z,1.52
2022-10-03T16:03:51.831Z,0.90
2022-10-03T16:06:49.345Z,1.10
2022-10-03T16:09:56.679Z,1.13
2022-10-03T16:13:13.187Z,0.85
2022-10-03T16:15:52.332Z,0.97
2022-10-03T16:18:19.167Z,1.35
2022-10-03T16:20:55.901Z,1.25
2022-10-03T16:23:27.871Z,1.40
2022-10-03T16:26:05.061Z,2.38
2022-10-03T16:29:11.715Z,1.10
2022-10-03T16:32:31.231Z,1.20
2022-10-03T16:35:04.124Z,1.08
2022-10-03T16:37:32.628Z,1.23
2022-10-03T16:40:08.901Z,2.47
2022-10-03T16:42:44.873Z,1.42
2022-10-03T16:45:44.330Z,1.27
2022-10-03T16:48:46.515Z,1.52
2022-10-03T16:51:35.747Z,1.60
2022-10-03T16:54:03.957Z,1.02
2022-10-03T16:56:37.313Z,2.05
2022-10-03T16:59:21.926Z,1.13
2022-10-03T17:02:01.882Z,2.17
2022-10-03T17:04:36.908Z,1.05
2022-10-03T17:07:33.172Z,1.30
2022-10-03T17:10:03.061Z,0.93
2022-10-03T17:12:34.688Z,1.27
2022-10-03T17:15:24.679Z,1.17
2022-10-03T17:18:16.033Z,1.05
2022-10-03T17:21:04.143Z,1.92
2022-10-03T17:23:46.305Z,3.05
2022-10-03T17:26:37.582Z,1.33
2022-10-03T17:29:13.956Z,1.13
2022-10-03T17:32:12.491Z,0.65
2022-10-03T17:34:50.490Z,0.77
2022-10-03T17:37:57.068Z,0.95
2022-10-03T17:40:36.444Z,0.95
2022-10-03T17:43:21.620Z,1.67
2022-10-03T17:46:03.884Z,0.75
2022-10-03T17:48:51.734Z,1.63
2022-10-03T17:51:39.496Z,0.95
2022-10-03T17:54:19.072Z,1.83
2022-10-03T17:57:18.339Z,1.00
2022-10-03T18:00:18.454Z,1.95
2022-10-03T18:03:27.493Z,2.22
2022-10-03T18:06:23.400Z,1.17
2022-10-03T18:08:52.312Z,2.33
2022-10-03T18:11:26.174Z,0.70
2022-10-03T18:14:20.539Z,1.45
2022-10-03T18:17:03.479Z,0.93
2022-10-03T18:20:26.111Z,1.63
2022-10-03T18:23:06.267Z,1.55
2022-10-03T18:29:01.684Z,1.80
2022-10-03T18:31:34.150Z,2.28
2022-10-03T18:34:26.910Z,1.63
2022-10-03T18:36:55.274Z,2.75
2022-10-03T18:39:28.843Z,1.27
2022-10-03T18:42:01.712Z,1.33
2022-10-03T18:44:30.918Z,1.10
2022-10-03T18:47:20.325Z,1.40
2022-10-03T18:50:19.704Z,1.25
2022-10-03T18:53:02.519Z,1.23
2022-10-03T18:55:43.404Z,1.38
2022-10-03T18:58:31.915Z,0.82
2022-10-03T19:01:40.256Z,1.30
2022-10-03T19:04:53.287Z,1.83
2022-10-03T19:07:30.099Z,1.58
2022-10-03T19:10:33.161Z,1.35
2022-10-03T19:13:20.489Z,1.75
2022-10-03T19:16:40.212Z,1.42
2022-10-03T19:19:34.361Z,1.30
2022-10-03T19:22:06.760Z,1.98
2022-10-03T19:24:57.252Z,1.88
2022-10-03T19:27:39.957Z,2.20
2022-10-03T19:30:08.450Z,2.17
2022-10-03T19:32:42.576Z,2.50
2022-10-03T19:35:15.360Z,2.67
2022-10-03T19:37:47.450Z,1.60
2022-10-03T19:40:37.716Z,1.60
2022-10-03T19:43:36.577Z,1.20
2022-10-03T19:46:15.291Z,1.55
2022-10-03T19:49:06.126Z,0.98
2022-10-03T19:51:33.081Z,1.20
2022-10-03T19:54:00.860Z,1.35
2022-10-03T19:56:32.655Z,1.65
2022-10-03T19:59:17.972Z,1.45
2022-10-03T20:01:47.555Z,1.10
2022-10-03T20:04:20.087Z,1.17
2022-10-03T20:06:50.053Z,0.90
2022-10-03T20:09:26.239Z,1.90
2022-10-03T20:12:03.229Z,0.98
2022-10-03T20:14:43.197Z,1.15
2022-10-03T20:17:22.257Z,0.98
2022-10-03T20:20:07.819Z,0.98
2022-10-03T20:22:36.750Z,2.17
2022-10-03T20:25:21.572Z,1.30
2022-10-03T20:27:57.361Z,3.30
2022-10-03T20:30:47.927Z,4.18
2022-10-03T20:33:30.254Z,3.90
2022-10-03T20:36:27.309Z,5.38
2022-10-03T20:39:45.135Z,6.00
2022-10-03T20:42:26.127Z,5.07
2022-10-03T20:45:07.228Z,3.78
2022-10-03T20:47:55.825Z,3.33
2022-10-03T20:50:32.683Z,4.10
2022-10-03T20:53:23.385Z,3.03
2022-10-03T20:56:00.152Z,4.60
2022-10-03T20:58:51.290Z,5.28
2022-10-03T21:01:25.695Z,5.35
2022-10-03T21:04:19.677Z,2.55
2022-10-03T21:07:22.034Z,2.38
2022-10-03T21:10:10.637Z,2.33
2022-10-03T21:13:00.747Z,1.85
2022-10-03T21:15:51.047Z,2.47
2022-10-03T21:18:23.327Z,2.78
2022-10-03T21:21:00.944Z,2.00
2022-10-03T21:23:29.210Z,1.58
2022-10-03T21:25:58.873Z,1.60
2022-10-03T21:28:31.729Z,1.90
2022-10-03T21:31:25.835Z,2.20
2022-10-03T21:34:14.687Z,1.30
2022-10-03T21:36:48.664Z,1.23
2022-10-03T21:39:21.892Z,0.85
2022-10-03T21:42:04.634Z,1.42
2022-10-03T21:44:55.243Z,2.05
2022-10-03T21:47:50.122Z,1.20
2022-10-03T21:50:24.909Z,1.35
2022-10-03T21:53:11.332Z,3.13
2022-10-03T21:56:18.248Z,1.60
2022-10-03T21:59:18.977Z,2.13
2022-10-03T22:02:46.130Z,1.10
2022-10-03T22:05:59.991Z,1.83
2022-10-03T22:08:33.106Z,2.03
2022-10-03T22:11:20.672Z,1.30
2022-10-03T22:14:03.655Z,1.00
2022-10-03T22:17:09.709Z,1.60
2022-10-03T22:19:53.874Z,1.38
2022-10-03T22:22:41.482Z,1.25
2022-10-03T22:25:51.879Z,1.38
2022-10-03T22:28:45.872Z,0.82
2022-10-03T22:31:54.911Z,1.25
2022-10-03T22:35:00.284Z,1.70
2022-10-03T22:37:28.008Z,1.60
2022-10-03T22:39:59.611Z,1.00
2022-10-03T22:42:30.773Z,1.92
2022-10-03T22:44:58.078Z,1.25
2022-10-03T22:47:30.714Z,1.63
2022-10-03T22:50:03.769Z,1.20
2022-10-03T22:52:36.702Z,1.15
2022-10-03T22:55:07.420Z,2.33
2022-10-03T22:57:36.024Z,0.93
2022-10-03T23:00:16.600Z,1.80
2022-10-03T23:03:08.658Z,1.30
2022-10-03T23:06:38.528Z,1.20
2022-10-03T23:09:25.588Z,1.17
2022-10-03T23:11:54.628Z,1.90
2022-10-03T23:14:26.365Z,1.40
2022-10-03T23:17:18.185Z,2.35
2022-10-03T23:20:35.230Z,1.33
2022-10-03T23:23:31.869Z,1.30
2022-10-03T23:26:47.801Z,1.13
2022-10-03T23:29:18.500Z,1.13
2022-10-03T23:32:05.831Z,1.20
2022-10-03T23:34:38.273Z,1.20
2022-10-03T23:37:13.923Z,1.02
2022-10-03T23:42:32.925Z,1.10
2022-10-03T23:45:11.104Z,1.15
2022-10-03T23:48:10.954Z,2.10
2022-10-03T23:50:59.177Z,1.33
2022-10-03T23:53:40.371Z,1.20
2022-10-03T23:56:41.978Z,1.10
2022-10-03T23:59:16.010Z,1.15
